createdAt,value
2018-08-04T00:01:14.083Z,14.25
2018-08-04T00:06:17.882Z,13.60
2018-08-04T00:11:21.567Z,14.00
2018-08-04T00:16:25.246Z,14.00
2018-08-04T00:21:29.197Z,12.20
2018-08-04T00:26:34.114Z,13.00
2018-08-04T00:31:37.762Z,13.75
2018-08-04T00:36:41.500Z,14.25
2018-08-04T00:41:45.803Z,14.00
2018-08-04T00:46:49.638Z,12.75
2018-08-04T00:51:53.367Z,13.00
2018-08-04T00:56:57.024Z,13.00
2018-08-04T01:02:00.804Z,13.20
2018-08-04T01:07:04.657Z,12.75
2018-08-04T01:12:08.343Z,13.00
2018-08-04T01:17:12.014Z,12.00
2018-08-04T01:22:15.740Z,12.60
2018-08-04T01:27:19.489Z,12.00
2018-08-04T01:32:23.193Z,13.25
2018-08-04T01:37:27.746Z,12.25
2018-08-04T01:42:31.785Z,11.50
2018-08-04T01:47:35.451Z,10.00
2018-08-04T01:52:39.087Z,11.00
2018-08-04T01:57:42.801Z,11.00
2018-08-04T02:02:46.705Z,11.50
2018-08-04T02:07:50.377Z,12.00
2018-08-04T02:12:54.200Z,9.60
2018-08-04T02:17:58.005Z,11.80
2018-08-04T02:23:01.930Z,11.00
2018-08-04T02:28:05.673Z,12.00
2018-08-04T02:33:09.389Z,11.00
2018-08-04T02:38:13.180Z,10.20
2018-08-04T02:43:16.912Z,11.00
2018-08-04T02:48:20.613Z,12.00
2018-08-04T02:53:24.371Z,10.00
2018-08-04T02:58:28.051Z,11.00
2018-08-04T03:03:31.727Z,11.50
2018-08-04T03:08:35.435Z,9.50
2018-08-04T03:13:39.313Z,10.60
2018-08-04T03:18:43.034Z,11.60
2018-08-04T03:23:46.890Z,10.80
2018-08-04T03:28:50.660Z,10.25
2018-08-04T03:33:54.755Z,12.00
2018-08-04T03:38:58.600Z,12.00
2018-08-04T03:44:02.498Z,10.50
2018-08-04T03:49:06.374Z,11.40
2018-08-04T03:54:10.158Z,12.40
2018-08-04T03:59:14.336Z,12.25
2018-08-04T04:04:18.118Z,13.00
2018-08-04T04:09:21.940Z,11.00
2018-08-04T04:14:26.354Z,11.00
2018-08-04T04:19:30.191Z,12.40
2018-08-04T04:24:33.995Z,13.00
2018-08-04T04:29:37.838Z,11.20
2018-08-04T04:34:42.737Z,12.40
2018-08-04T04:39:46.619Z,12.00
2018-08-04T04:44:50.366Z,10.75
2018-08-04T04:49:54.429Z,13.00
2018-08-04T04:54:58.335Z,12.20
2018-08-04T05:00:05.715Z,13.80
2018-08-04T05:14:44.294Z,13.00
2018-08-04T05:19:48.010Z,14.50
2018-08-04T05:24:51.821Z,16.00
2018-08-04T05:29:55.655Z,15.25
2018-08-04T05:34:59.459Z,14.00
2018-08-04T05:40:08.124Z,14.50
2018-08-04T05:45:11.884Z,14.40
2018-08-04T05:50:15.699Z,15.80
2018-08-04T05:55:19.583Z,14.00
2018-08-04T06:00:25.249Z,13.80
2018-08-04T06:05:29.439Z,13.20
2018-08-04T06:10:33.154Z,15.80
2018-08-04T06:15:36.823Z,15.20
2018-08-04T06:20:40.638Z,13.50
2018-08-04T06:25:44.441Z,16.00
2018-08-04T06:30:48.227Z,15.50
2018-08-04T06:35:52.111Z,15.80
2018-08-04T06:40:56.144Z,19.80
2018-08-04T06:46:01.845Z,20.00
2018-08-04T06:51:05.998Z,19.50
2018-08-04T06:56:09.804Z,20.00
2018-08-04T07:01:13.546Z,18.50
2018-08-04T07:06:17.150Z,21.00
2018-08-04T07:11:20.851Z,19.60
2018-08-04T07:16:24.497Z,21.50
2018-08-04T07:21:28.125Z,21.00
2018-08-04T07:26:31.835Z,21.25
2018-08-04T07:31:35.583Z,20.80
2018-08-04T07:36:39.271Z,22.50
2018-08-04T07:41:42.935Z,19.80
2018-08-04T07:46:46.595Z,22.25
2018-08-04T07:51:50.450Z,22.25
2018-08-04T07:56:54.130Z,23.00
2018-08-04T08:01:57.843Z,22.40
2018-08-04T08:07:01.552Z,22.50
2018-08-04T08:12:05.297Z,21.50
2018-08-04T08:17:08.971Z,22.25
2018-08-04T08:22:12.899Z,22.75
2018-08-04T08:27:16.578Z,22.00
2018-08-04T08:32:20.486Z,20.25
2018-08-04T08:37:24.282Z,20.00
2018-08-04T08:42:29.123Z,21.60
2018-08-04T08:47:33.253Z,22.00
2018-08-04T08:52:37.152Z,20.75
2018-08-04T08:57:40.943Z,19.00
2018-08-04T09:02:44.728Z,20.00
2018-08-04T09:07:48.414Z,19.25
2018-08-04T09:12:52.122Z,19.25
2018-08-04T09:17:56.749Z,19.75
2018-08-04T09:23:00.564Z,20.00
2018-08-04T09:28:04.306Z,18.50
2018-08-04T09:33:08.511Z,18.40
2018-08-04T09:38:12.203Z,19.60
2018-08-04T09:43:15.931Z,19.75
2018-08-04T09:48:19.634Z,19.25
2018-08-04T09:53:23.306Z,16.00
2018-08-04T09:58:27.040Z,15.80
2018-08-04T10:03:30.786Z,17.50
2018-08-04T10:08:34.514Z,18.75
2018-08-04T10:13:38.173Z,17.00
2018-08-04T10:18:41.842Z,17.75
2018-08-04T10:23:45.740Z,18.75
2018-08-04T10:28:49.423Z,16.75
2018-08-04T10:33:56.122Z,17.00
2018-08-04T10:38:59.824Z,16.00
2018-08-04T10:44:03.652Z,18.00
2018-08-04T10:49:07.225Z,17.75
2018-08-04T10:54:11.172Z,15.00
2018-08-04T10:59:14.981Z,17.00
2018-08-04T11:09:57.073Z,15.60
2018-08-04T11:15:03.426Z,15.00
2018-08-04T11:20:08.776Z,16.00
2018-08-04T11:25:12.547Z,16.80
2018-08-04T11:30:16.379Z,16.00
2018-08-04T11:35:20.385Z,16.00
2018-08-04T11:40:24.587Z,15.40
2018-08-04T11:45:28.291Z,16.00
2018-08-04T11:50:32.159Z,16.00
2018-08-04T11:55:35.810Z,15.25
2018-08-04T12:00:39.499Z,13.75
2018-08-04T12:05:43.167Z,16.00
2018-08-04T12:10:46.994Z,15.00
2018-08-04T12:15:51.002Z,14.00
2018-08-04T12:20:55.626Z,14.25
2018-08-04T12:25:59.366Z,13.75
2018-08-04T12:31:03.134Z,15.20
2018-08-04T12:36:07.823Z,15.00
2018-08-04T12:41:11.626Z,15.25
2018-08-04T12:46:15.614Z,14.50
2018-08-04T12:51:20.175Z,13.50
2018-08-04T12:56:24.027Z,14.25
2018-08-04T13:01:28.295Z,14.80
2018-08-04T13:06:32.818Z,14.20
2018-08-04T13:11:36.810Z,12.75
2018-08-04T13:16:41.154Z,13.00
2018-08-04T13:21:45.886Z,13.40
2018-08-04T13:26:51.406Z,13.40
2018-08-04T13:31:55.276Z,12.00
2018-08-04T13:37:00.995Z,12.00
2018-08-04T13:42:05.126Z,14.00
2018-08-04T13:47:08.935Z,12.00
2018-08-04T13:52:13.269Z,12.50
2018-08-04T13:57:17.359Z,12.80
2018-08-04T14:02:21.433Z,12.20
2018-08-04T14:07:25.030Z,12.00
2018-08-04T14:12:29.150Z,13.00
2018-08-04T14:17:32.821Z,11.60
2018-08-04T14:22:36.707Z,11.25
2018-08-04T14:27:40.591Z,11.25
2018-08-04T14:32:44.537Z,11.25
2018-08-04T14:37:48.940Z,11.25
2018-08-04T14:42:52.799Z,11.75
2018-08-04T14:47:56.507Z,10.25
2018-08-04T14:53:00.229Z,11.00
2018-08-04T14:58:04.043Z,11.80
2018-08-04T15:03:08.216Z,11.20
2018-08-04T15:08:12.354Z,10.00
2018-08-04T15:13:17.575Z,10.00
2018-08-04T15:18:21.276Z,10.50
2018-08-04T15:23:25.861Z,10.00
2018-08-04T15:28:32.378Z,10.00
2018-08-04T15:33:37.114Z,10.50
2018-08-04T15:38:42.553Z,8.60
2018-08-04T15:43:46.449Z,9.60
2018-08-04T15:48:51.038Z,9.75
2018-08-04T15:53:54.967Z,10.40
2018-08-04T15:58:58.803Z,9.75
2018-08-04T16:04:02.576Z,9.25
2018-08-04T16:09:08.457Z,8.50
2018-08-04T16:14:12.195Z,9.00
2018-08-04T16:19:16.347Z,8.80
2018-08-04T16:24:20.164Z,8.60
2018-08-04T16:29:24.413Z,8.00
2018-08-04T16:34:29.365Z,9.00
2018-08-04T16:39:33.193Z,9.00
2018-08-04T16:44:36.935Z,9.80
2018-08-04T16:49:40.718Z,8.50
2018-08-04T16:54:44.566Z,7.75
2018-08-04T16:59:48.586Z,8.00
2018-08-04T17:04:52.318Z,8.00
2018-08-04T17:09:56.022Z,8.00
2018-08-04T17:14:59.750Z,9.25
2018-08-04T17:20:05.850Z,8.50
2018-08-04T17:25:09.619Z,8.00
2018-08-04T17:30:13.399Z,8.00
2018-08-04T17:35:17.149Z,8.00
2018-08-04T17:40:20.874Z,7.60
2018-08-04T17:45:24.528Z,7.20
2018-08-04T17:50:28.214Z,7.75
2018-08-04T17:55:31.845Z,7.00
2018-08-04T18:00:35.627Z,7.00
2018-08-04T18:05:39.488Z,7.00
2018-08-04T18:10:43.129Z,6.00
2018-08-04T18:15:47.037Z,7.00
2018-08-04T18:20:50.691Z,7.00
2018-08-04T18:25:54.361Z,8.00
2018-08-04T18:30:58.074Z,6.50
2018-08-04T18:36:01.857Z,7.00
2018-08-04T18:41:05.655Z,6.75
2018-08-04T18:46:09.322Z,8.00
2018-08-04T18:51:13.081Z,6.40
2018-08-04T18:56:17.276Z,6.40
2018-08-04T19:01:21.018Z,6.00
2018-08-04T19:06:24.735Z,9.25
2018-08-04T19:11:28.434Z,9.50
2018-08-04T19:16:32.231Z,11.00
2018-08-04T19:21:35.886Z,13.00
2018-08-04T19:26:39.701Z,14.50
2018-08-04T19:31:43.402Z,14.50
2018-08-04T19:36:47.107Z,15.00
2018-08-04T19:41:51.127Z,15.20
2018-08-04T19:46:54.962Z,15.75
2018-08-04T19:51:58.785Z,16.00
2018-08-04T19:57:02.630Z,15.40
2018-08-04T20:02:06.493Z,16.00
2018-08-04T20:07:10.160Z,18.00
2018-08-04T20:12:13.810Z,16.00
2018-08-04T20:17:17.447Z,16.50
2018-08-04T20:22:21.078Z,17.00
2018-08-04T20:27:25.722Z,18.20
2018-08-04T20:32:29.482Z,15.50
2018-08-04T20:37:33.970Z,17.25
2018-08-04T20:42:37.683Z,16.25
2018-08-04T20:47:41.307Z,15.75
2018-08-04T20:52:44.997Z,17.20
2018-08-04T20:57:48.694Z,16.00
2018-08-04T21:02:52.413Z,16.00
2018-08-04T21:07:56.091Z,18.00
2018-08-04T21:12:59.754Z,16.50
2018-08-04T21:18:03.374Z,19.75
2018-08-04T21:23:07.158Z,18.50
2018-08-04T21:28:10.837Z,17.00
2018-08-04T21:33:14.523Z,15.50
2018-08-04T21:38:18.230Z,17.00
2018-08-04T21:43:21.950Z,16.00
2018-08-04T21:48:25.609Z,17.00
2018-08-04T21:53:29.307Z,15.75
2018-08-04T21:58:34.055Z,16.25
2018-08-04T22:03:37.978Z,15.50
2018-08-04T22:08:52.731Z,18.00
2018-08-04T22:13:56.476Z,17.00
2018-08-04T22:19:00.145Z,16.75
2018-08-04T22:24:03.962Z,17.00
2018-08-04T22:29:07.718Z,16.00
2018-08-04T22:34:11.373Z,18.00
2018-08-04T22:39:15.103Z,18.25
2018-08-04T22:44:18.842Z,17.25
2018-08-04T22:49:22.623Z,17.00
2018-08-04T22:54:26.385Z,15.40
2018-08-04T22:59:30.102Z,19.00
2018-08-04T23:04:35.711Z,16.00
2018-08-04T23:09:39.351Z,18.25
2018-08-04T23:14:43.822Z,18.00
2018-08-04T23:19:47.547Z,18.00
2018-08-04T23:24:51.254Z,17.00
2018-08-04T23:29:55.718Z,15.75
2018-08-04T23:34:59.547Z,17.00
2018-08-04T23:40:08.374Z,17.00
2018-08-04T23:45:12.092Z,17.60
2018-08-04T23:51:20.457Z,17.20
2018-08-04T23:56:24.307Z,18.00
